Time;durP1;ratioP1;P1;durP2;ratioP2;P2;SDS_P1;SDS_P2;PMS_P1;PMS_P2;Temp;Humidity;BMP_temperature;BMP_pressure;BME280_temperature;BME280_humidity;BME280_pressure;Samples;Min_cycle;Max_cycle;Signal;HPM_P1;HPM_P2
2021/06/27 00:00:22;;;;;;;9.65;4.57;;;;;;;;;;4933690;29;20110;-63
2021/06/27 00:02:48;;;;;;;8.45;5.10;;;;;;;;;;4934503;29;20372;-63
2021/06/27 00:05:16;;;;;;;10.80;4.78;;;;;;;;;;4933950;29;20032;-63
2021/06/27 00:07:42;;;;;;;9.55;4.45;;;;;;;;;;4933956;29;20051;-65
2021/06/27 00:10:10;;;;;;;11.25;4.72;;;;;;;;;;4933831;29;20472;-67
2021/06/27 00:12:36;;;;;;;8.15;4.60;;;;;;;;;;4933998;29;20106;-64
2021/06/27 00:15:03;;;;;;;7.40;4.18;;;;;;;;;;4934119;29;20039;-65
2021/06/27 00:17:29;;;;;;;9.73;4.57;;;;;;;;;;4933744;29;20049;-66
2021/06/27 00:19:55;;;;;;;10.80;4.97;;;;;;;;;;4933831;29;20040;-63
2021/06/27 00:22:21;;;;;;;9.73;4.68;;;;;;;;;;4933641;29;20023;-68
2021/06/27 00:24:47;;;;;;;9.30;4.72;;;;;;;;;;4933870;29;20032;-63
2021/06/27 00:27:13;;;;;;;9.80;4.30;;;;;;;;;;4933669;29;20035;-68
2021/06/27 00:29:39;;;;;;;7.25;4.63;;;;;;;;;;4936649;29;20130;-65
2021/06/27 00:32:06;;;;;;;7.22;4.40;;;;;;;;;;4936812;29;20056;-66
2021/06/27 00:34:32;;;;;;;11.32;5.15;;;;;;;;;;4937187;29;20525;-67
2021/06/27 00:36:58;;;;;;;8.13;4.25;;;;;;;;;;4937294;29;20076;-64
2021/06/27 00:39:24;;;;;;;11.15;4.28;;;;;;;;;;4937082;29;20455;-64
2021/06/27 00:41:50;;;;;;;7.07;4.05;;;;;;;;;;4937056;29;20039;-64
2021/06/27 00:44:21;;;;;;;12.25;4.53;;;;;;;;;;4937042;29;20028;-63
2021/06/27 00:46:54;;;;;;;10.73;4.88;;;;;;;;;;4936763;29;20016;-63
2021/06/27 00:49:20;;;;;;;9.10;4.25;;;;;;;;;;4936456;29;20522;-63
2021/06/27 00:51:47;;;;;;;9.63;4.20;;;;;;;;;;4936630;29;20042;-66
2021/06/27 00:54:13;;;;;;;7.05;3.95;;;;;;;;;;4936087;29;20038;-63
2021/06/27 00:56:39;;;;;;;8.50;4.13;;;;;;;;;;4936537;29;20396;-63
2021/06/27 00:59:05;;;;;;;8.18;4.00;;;;;;;;;;4936335;29;20040;-65
2021/06/27 01:01:31;;;;;;;7.25;4.45;;;;;;;;;;4936292;29;20337;-67
2021/06/27 01:03:57;;;;;;;36.28;17.23;;;;;;;;;;4936941;29;20047;-69
2021/06/27 01:06:23;;;;;;;15.75;8.27;;;;;;;;;;4936542;29;20034;-63
2021/06/27 01:08:50;;;;;;;9.35;5.93;;;;;;;;;;4936391;29;20064;-63
2021/06/27 01:11:17;;;;;;;8.27;5.28;;;;;;;;;;4936737;29;20059;-65
2021/06/27 01:13:43;;;;;;;9.80;4.63;;;;;;;;;;4936475;29;20102;-66
2021/06/27 01:16:10;;;;;;;6.53;4.30;;;;;;;;;;4936369;29;20083;-66
2021/06/27 01:18:36;;;;;;;13.13;6.45;;;;;;;;;;4936293;29;20040;-62
2021/06/27 01:21:10;;;;;;;10.95;4.82;;;;;;;;;;4936073;29;20495;-64
2021/06/27 01:23:37;;;;;;;9.18;4.45;;;;;;;;;;4935956;29;20066;-64
2021/06/27 01:26:03;;;;;;;10.95;4.38;;;;;;;;;;4936604;29;20390;-64
2021/06/27 01:28:29;;;;;;;8.00;4.13;;;;;;;;;;4936065;29;20107;-64
2021/06/27 01:30:55;;;;;;;7.60;4.45;;;;;;;;;;4935694;29;20051;-63
2021/06/27 01:33:22;;;;;;;6.65;3.92;;;;;;;;;;4936081;29;20066;-63
2021/06/27 01:35:48;;;;;;;9.00;4.47;;;;;;;;;;4936107;29;20151;-63
2021/06/27 01:38:15;;;;;;;8.40;4.90;;;;;;;;;;4935836;29;20043;-64
2021/06/27 01:40:42;;;;;;;6.88;4.60;;;;;;;;;;4935176;29;20100;-65
2021/06/27 01:43:18;;;;;;;7.72;4.53;;;;;;;;;;4936065;29;20096;-65
2021/06/27 01:45:49;;;;;;;108.22;48.30;;;;;;;;;;4936069;29;20086;-63
2021/06/27 01:48:15;;;;;;;9.27;4.50;;;;;;;;;;4918496;29;20067;-63
2021/06/27 01:50:43;;;;;;;6.22;4.20;;;;;;;;;;4935835;29;20489;-67
2021/06/27 01:53:10;;;;;;;8.73;4.32;;;;;;;;;;4935736;29;20392;-65
2021/06/27 01:55:36;;;;;;;7.80;4.43;;;;;;;;;;4935526;29;20023;-63
2021/06/27 01:58:03;;;;;;;12.00;4.85;;;;;;;;;;4935472;29;20031;-68
2021/06/27 02:00:29;;;;;;;9.55;4.63;;;;;;;;;;4935436;29;20174;-67
2021/06/27 02:02:56;;;;;;;11.13;4.78;;;;;;;;;;4936723;29;20043;-66
2021/06/27 02:05:22;;;;;;;10.00;4.40;;;;;;;;;;4935841;29;20032;-66
2021/06/27 02:07:48;;;;;;;6.45;4.13;;;;;;;;;;4935301;29;20020;-66
2021/06/27 02:10:18;;;;;;;6.88;4.13;;;;;;;;;;4935230;29;20034;-65
2021/06/27 02:12:44;;;;;;;6.95;4.30;;;;;;;;;;4935533;29;20028;-66
2021/06/27 02:15:11;;;;;;;7.43;4.05;;;;;;;;;;4934936;29;20445;-66
2021/06/27 02:17:37;;;;;;;10.43;4.88;;;;;;;;;;4934983;29;20035;-66
2021/06/27 02:20:06;;;;;;;8.70;4.38;;;;;;;;;;4935119;29;20047;-66
2021/06/27 02:22:33;;;;;;;9.60;4.60;;;;;;;;;;4934757;29;20031;-65
2021/06/27 02:24:59;;;;;;;7.80;4.38;;;;;;;;;;4935200;29;20514;-66
2021/06/27 02:27:25;;;;;;;9.75;4.72;;;;;;;;;;4934935;29;20015;-66
2021/06/27 02:29:51;;;;;;;8.40;4.22;;;;;;;;;;4935055;29;20019;-65
2021/06/27 02:32:17;;;;;;;10.30;4.30;;;;;;;;;;4934890;29;20115;-66
2021/06/27 02:34:43;;;;;;;7.38;4.90;;;;;;;;;;4934966;29;20028;-66
2021/06/27 02:37:09;;;;;;;8.63;4.07;;;;;;;;;;4934906;29;20040;-65
2021/06/27 02:39:35;;;;;;;6.93;4.40;;;;;;;;;;4934814;29;20396;-67
2021/06/27 02:42:01;;;;;;;6.78;4.75;;;;;;;;;;4935035;29;20102;-68
2021/06/27 02:44:27;;;;;;;9.07;4.93;;;;;;;;;;4934940;29;20028;-66
2021/06/27 02:46:53;;;;;;;9.50;4.53;;;;;;;;;;4934619;29;20387;-66
2021/06/27 02:49:22;;;;;;;8.18;4.50;;;;;;;;;;4934668;29;20031;-66
2021/06/27 02:51:48;;;;;;;8.48;4.32;;;;;;;;;;4933545;29;20490;-67
2021/06/27 02:54:14;;;;;;;6.88;4.28;;;;;;;;;;4934877;29;20498;-66
2021/06/27 02:56:40;;;;;;;8.45;4.25;;;;;;;;;;4934838;29;20512;-65
2021/06/27 02:59:06;;;;;;;7.88;4.20;;;;;;;;;;4934136;29;20480;-65
2021/06/27 03:01:32;;;;;;;6.97;4.38;;;;;;;;;;4934580;29;20035;-67
2021/06/27 03:03:58;;;;;;;6.97;3.97;;;;;;;;;;4934185;29;20036;-67
2021/06/27 03:06:25;;;;;;;6.55;4.35;;;;;;;;;;4934617;29;20030;-66
2021/06/27 03:08:51;;;;;;;8.75;4.50;;;;;;;;;;4934579;29;20039;-66
2021/06/27 03:11:17;;;;;;;7.28;3.97;;;;;;;;;;4934672;29;20026;-66
2021/06/27 03:13:43;;;;;;;8.00;4.07;;;;;;;;;;4934516;29;20031;-66
2021/06/27 03:16:10;;;;;;;6.13;3.67;;;;;;;;;;4934393;29;20028;-66
2021/06/27 03:18:36;;;;;;;8.40;4.72;;;;;;;;;;4934190;29;20487;-68
2021/06/27 03:21:02;;;;;;;8.27;4.10;;;;;;;;;;4934860;29;20027;-65
2021/06/27 03:23:28;;;;;;;7.47;4.10;;;;;;;;;;4934250;29;20035;-67
2021/06/27 03:25:55;;;;;;;8.95;4.20;;;;;;;;;;4934261;29;20448;-67
2021/06/27 03:28:21;;;;;;;7.45;3.95;;;;;;;;;;4934008;29;20023;-66
2021/06/27 03:30:48;;;;;;;6.43;3.97;;;;;;;;;;4933782;29;20543;-66
2021/06/27 03:33:14;;;;;;;6.25;4.00;;;;;;;;;;4933842;29;20047;-68
2021/06/27 03:35:40;;;;;;;7.00;3.70;;;;;;;;;;4934084;29;20027;-68
2021/06/27 03:40:32;;;;;;;7.72;3.92;;;;;;;;;;4933937;29;20032;-67
2021/06/27 03:43:02;;;;;;;7.10;4.10;;;;;;;;;;4933926;29;20032;-68
2021/06/27 03:45:31;;;;;;;6.82;3.95;;;;;;;;;;4933911;29;20039;-67
2021/06/27 03:47:57;;;;;;;7.85;4.10;;;;;;;;;;4933810;29;20035;-67
2021/06/27 03:50:23;;;;;;;7.88;4.35;;;;;;;;;;4934129;29;20241;-67
2021/06/27 03:52:49;;;;;;;5.68;4.05;;;;;;;;;;4933592;29;20555;-67
2021/06/27 03:55:17;;;;;;;7.03;4.32;;;;;;;;;;4934403;29;20115;-66
2021/06/27 03:57:43;;;;;;;8.43;4.25;;;;;;;;;;4933966;29;20119;-68
2021/06/27 04:00:10;;;;;;;7.25;4.32;;;;;;;;;;4933978;29;20063;-68
2021/06/27 04:02:36;;;;;;;8.88;4.38;;;;;;;;;;4933660;29;20035;-68
2021/06/27 04:05:04;;;;;;;7.28;4.18;;;;;;;;;;4937747;29;20560;-67
2021/06/27 04:07:30;;;;;;;6.75;4.43;;;;;;;;;;4937022;29;20078;-67
2021/06/27 04:09:56;;;;;;;9.07;4.68;;;;;;;;;;4920292;29;20440;-68
2021/06/27 04:12:22;;;;;;;6.80;4.03;;;;;;;;;;4937833;29;20519;-67
2021/06/27 04:14:50;;;;;;;6.30;4.15;;;;;;;;;;4937501;29;20020;-67
2021/06/27 04:17:19;;;;;;;5.93;4.38;;;;;;;;;;4920299;29;20110;-68
2021/06/27 04:19:46;;;;;;;6.50;4.28;;;;;;;;;;4937239;29;20131;-67
2021/06/27 04:22:12;;;;;;;6.88;3.88;;;;;;;;;;4937374;29;20031;-67
2021/06/27 04:24:38;;;;;;;6.47;4.28;;;;;;;;;;4937473;29;20079;-67
2021/06/27 04:27:04;;;;;;;6.32;4.28;;;;;;;;;;4937370;29;20074;-66
2021/06/27 04:29:30;;;;;;;6.15;4.25;;;;;;;;;;4937214;29;20051;-68
2021/06/27 04:31:56;;;;;;;7.72;4.20;;;;;;;;;;4936788;29;20042;-70
2021/06/27 04:34:23;;;;;;;9.85;4.22;;;;;;;;;;4937740;29;20031;-68
2021/06/27 04:36:50;;;;;;;6.28;4.03;;;;;;;;;;4937019;29;20397;-66
2021/06/27 04:39:16;;;;;;;9.63;4.82;;;;;;;;;;4933710;29;20032;-68
2021/06/27 04:41:44;;;;;;;7.85;4.35;;;;;;;;;;4933140;29;20358;-67
2021/06/27 04:44:11;;;;;;;7.90;4.20;;;;;;;;;;4933980;29;20062;-67
2021/06/27 04:46:37;;;;;;;7.47;4.35;;;;;;;;;;4933139;29;20481;-67
2021/06/27 04:49:03;;;;;;;6.20;4.50;;;;;;;;;;4935374;29;20027;-67
2021/06/27 04:51:29;;;;;;;6.50;4.13;;;;;;;;;;4936808;29;20593;-65
2021/06/27 04:53:55;;;;;;;8.27;4.30;;;;;;;;;;4936720;29;20462;-66
2021/06/27 04:56:22;;;;;;;6.68;4.53;;;;;;;;;;4937022;29;20032;-68
2021/06/27 04:58:48;;;;;;;16.42;10.45;;;;;;;;;;4936586;29;20035;-67
2021/06/27 05:01:14;;;;;;;7.85;4.50;;;;;;;;;;4936503;29;20024;-66
2021/06/27 05:03:40;;;;;;;7.32;4.40;;;;;;;;;;4936404;29;20059;-66
2021/06/27 05:06:06;;;;;;;7.53;4.60;;;;;;;;;;4936370;29;20090;-65
2021/06/27 05:08:32;;;;;;;5.13;4.53;;;;;;;;;;4936644;29;20020;-65
2021/06/27 05:10:58;;;;;;;5.90;4.90;;;;;;;;;;4936390;29;20042;-66
2021/06/27 05:13:25;;;;;;;6.40;4.57;;;;;;;;;;4936358;29;20046;-66
2021/06/27 05:15:51;;;;;;;18.70;14.38;;;;;;;;;;4935156;29;20036;-67
2021/06/27 05:18:17;;;;;;;7.80;5.50;;;;;;;;;;4936005;29;20436;-65
2021/06/27 05:20:43;;;;;;;6.82;5.18;;;;;;;;;;4936600;29;20142;-69
2021/06/27 05:23:09;;;;;;;5.60;4.47;;;;;;;;;;4936162;29;20525;-68
2021/06/27 05:25:35;;;;;;;8.60;5.60;;;;;;;;;;4936389;29;20031;-68
2021/06/27 05:28:01;;;;;;;5.90;5.10;;;;;;;;;;4936181;29;20024;-67
2021/06/27 05:30:27;;;;;;;9.63;5.75;;;;;;;;;;4935879;29;20035;-66
2021/06/27 05:32:54;;;;;;;10.88;5.22;;;;;;;;;;4935891;29;20036;-65
2021/06/27 05:35:20;;;;;;;6.93;4.88;;;;;;;;;;4935935;29;20036;-65
2021/06/27 05:37:46;;;;;;;6.90;4.85;;;;;;;;;;4935660;29;20027;-65
2021/06/27 05:40:13;;;;;;;6.53;5.22;;;;;;;;;;4936030;29;20036;-65
2021/06/27 05:42:39;;;;;;;6.50;5.05;;;;;;;;;;4935761;29;20129;-65
2021/06/27 05:45:06;;;;;;;5.70;4.88;;;;;;;;;;4932459;29;20040;-66
2021/06/27 05:47:32;;;;;;;6.93;5.15;;;;;;;;;;4919520;29;20269;-65
2021/06/27 05:49:58;;;;;;;7.82;5.72;;;;;;;;;;4920492;29;20168;-64
2021/06/27 05:52:25;;;;;;;8.65;5.32;;;;;;;;;;4923256;29;20027;-61
2021/06/27 05:54:51;;;;;;;8.13;4.70;;;;;;;;;;4931592;29;20036;-64
2021/06/27 05:57:17;;;;;;;7.80;5.03;;;;;;;;;;4916320;29;20032;-65
2021/06/27 05:59:44;;;;;;;7.95;4.88;;;;;;;;;;4928059;29;20854;-64
2021/06/27 06:02:10;;;;;;;7.03;4.55;;;;;;;;;;4935459;29;20059;-63
2021/06/27 06:04:36;;;;;;;8.98;6.45;;;;;;;;;;4935763;29;20027;-65
2021/06/27 06:07:02;;;;;;;10.60;6.05;;;;;;;;;;4935202;29;20023;-63
2021/06/27 06:09:28;;;;;;;8.70;5.38;;;;;;;;;;4935481;29;20020;-65
2021/06/27 06:11:54;;;;;;;9.55;5.40;;;;;;;;;;4935217;29;20039;-67
2021/06/27 06:14:20;;;;;;;6.80;4.97;;;;;;;;;;4930831;29;20028;-67
2021/06/27 06:16:46;;;;;;;9.35;4.80;;;;;;;;;;4915902;29;20079;-68
2021/06/27 06:19:19;;;;;;;5.82;4.95;;;;;;;;;;4915181;29;20043;-68
2021/06/27 06:21:45;;;;;;;13.20;9.02;;;;;;;;;;4915363;29;20020;-68
2021/06/27 06:24:11;;;;;;;9.45;5.07;;;;;;;;;;4915325;29;20064;-69
2021/06/27 06:26:37;;;;;;;6.97;5.00;;;;;;;;;;4915419;29;20020;-66
2021/06/27 06:29:04;;;;;;;21.15;11.45;;;;;;;;;;4914736;29;20035;-65
2021/06/27 06:31:30;;;;;;;8.88;5.15;;;;;;;;;;4915245;29;20040;-66
2021/06/27 06:33:56;;;;;;;7.38;4.68;;;;;;;;;;4914931;29;20556;-66
2021/06/27 06:36:22;;;;;;;13.27;7.10;;;;;;;;;;4915967;29;20051;-59
2021/06/27 06:38:48;;;;;;;9.52;5.72;;;;;;;;;;4915312;29;20396;-66
2021/06/27 06:41:16;;;;;;;8.38;5.20;;;;;;;;;;4915433;29;20043;-64
2021/06/27 06:43:42;;;;;;;6.38;5.10;;;;;;;;;;4915560;29;20028;-58
2021/06/27 06:46:08;;;;;;;10.70;5.35;;;;;;;;;;4915675;29;20063;-58
2021/06/27 06:48:34;;;;;;;10.15;6.45;;;;;;;;;;4915965;29;20040;-59
2021/06/27 06:51:00;;;;;;;8.48;4.50;;;;;;;;;;4915992;29;20056;-60
2021/06/27 06:53:27;;;;;;;9.07;5.18;;;;;;;;;;4917016;29;20040;-65
2021/06/27 06:55:56;;;;;;;11.73;5.10;;;;;;;;;;4920035;29;20039;-58
2021/06/27 06:58:23;;;;;;;8.18;4.93;;;;;;;;;;4914928;29;20054;-63
2021/06/27 07:00:49;;;;;;;18.35;5.85;;;;;;;;;;4914428;29;20139;-57
2021/06/27 07:03:15;;;;;;;10.40;6.07;;;;;;;;;;4914517;29;20052;-62
2021/06/27 07:05:41;;;;;;;7.63;4.88;;;;;;;;;;4914724;29;20024;-62
2021/06/27 07:08:08;;;;;;;91.10;44.47;;;;;;;;;;4915225;29;20033;-62
2021/06/27 07:10:34;;;;;;;8.65;5.15;;;;;;;;;;4915412;29;20036;-57
2021/06/27 07:13:00;;;;;;;40.45;20.05;;;;;;;;;;4915270;29;20024;-62
2021/06/27 07:15:26;;;;;;;8.07;4.97;;;;;;;;;;4915138;29;20583;-59
2021/06/27 07:17:52;;;;;;;27.70;13.95;;;;;;;;;;4915296;29;20016;-65
2021/06/27 07:20:18;;;;;;;8.65;5.55;;;;;;;;;;4914761;29;20028;-57
2021/06/27 07:22:44;;;;;;;10.80;5.05;;;;;;;;;;4914793;29;20439;-64
2021/06/27 07:25:11;;;;;;;40.60;20.85;;;;;;;;;;4914227;29;20028;-64
2021/06/27 07:27:37;;;;;;;6.93;4.63;;;;;;;;;;4914352;29;20483;-65
2021/06/27 07:30:05;;;;;;;8.25;4.80;;;;;;;;;;4914639;29;20095;-65
2021/06/27 07:32:31;;;;;;;6.82;4.50;;;;;;;;;;4913981;29;20421;-57
2021/06/27 07:34:57;;;;;;;10.77;5.07;;;;;;;;;;4914675;29;20040;-65
2021/06/27 07:37:23;;;;;;;7.55;4.60;;;;;;;;;;4913985;29;20454;-67
2021/06/27 07:39:49;;;;;;;8.10;4.93;;;;;;;;;;4918926;29;20113;-57
2021/06/27 07:42:15;;;;;;;14.27;7.88;;;;;;;;;;4918973;29;20035;-63
2021/06/27 07:44:41;;;;;;;12.85;7.55;;;;;;;;;;4918328;29;20473;-60
2021/06/27 07:47:07;;;;;;;8.50;5.55;;;;;;;;;;4918383;29;20445;-63
2021/06/27 07:49:33;;;;;;;8.07;4.72;;;;;;;;;;4917995;29;20095;-64
2021/06/27 07:51:59;;;;;;;9.57;5.38;;;;;;;;;;4918719;29;20020;-63
2021/06/27 07:54:25;;;;;;;81.13;42.58;;;;;;;;;;4918201;29;20032;-58
2021/06/27 07:56:51;;;;;;;9.68;5.38;;;;;;;;;;4918133;29;20024;-65
2021/06/27 07:59:17;;;;;;;10.88;5.50;;;;;;;;;;4918429;29;20040;-59
2021/06/27 08:01:43;;;;;;;6.18;5.10;;;;;;;;;;4918524;29;20131;-61
2021/06/27 08:04:10;;;;;;;8.35;4.80;;;;;;;;;;4917341;29;20510;-57
2021/06/27 08:06:36;;;;;;;9.02;5.90;;;;;;;;;;4918004;29;20107;-57
2021/06/27 08:09:02;;;;;;;11.93;7.85;;;;;;;;;;4918165;29;20040;-60
2021/06/27 08:11:28;;;;;;;27.67;14.75;;;;;;;;;;4914611;29;20064;-60
2021/06/27 08:13:54;;;;;;;7.93;5.20;;;;;;;;;;4915660;29;20044;-56
2021/06/27 08:16:20;;;;;;;11.02;5.80;;;;;;;;;;4905604;29;20024;-56
2021/06/27 08:18:46;;;;;;;9.73;6.00;;;;;;;;;;4917975;29;20040;-58
2021/06/27 08:21:12;;;;;;;6.72;4.65;;;;;;;;;;4918119;29;20035;-57
2021/06/27 08:23:38;;;;;;;10.25;5.32;;;;;;;;;;4918158;29;20032;-57
2021/06/27 08:26:05;;;;;;;7.00;4.80;;;;;;;;;;4918237;29;20032;-57
2021/06/27 08:28:31;;;;;;;5.75;3.88;;;;;;;;;;4918355;29;20043;-64
2021/06/27 08:30:57;;;;;;;7.85;4.22;;;;;;;;;;4917767;29;20112;-67
2021/06/27 08:33:23;;;;;;;7.97;4.22;;;;;;;;;;4918091;29;20040;-66
2021/06/27 08:35:49;;;;;;;6.38;4.20;;;;;;;;;;4917324;29;20059;-59
2021/06/27 08:38:16;;;;;;;5.00;3.63;;;;;;;;;;4917436;29;20036;-59
2021/06/27 08:40:42;;;;;;;6.82;3.78;;;;;;;;;;4917646;29;20040;-62
2021/06/27 08:43:09;;;;;;;6.47;3.20;;;;;;;;;;4917469;29;20028;-63
2021/06/27 08:45:51;;;;;;;5.45;3.42;;;;;;;;;;4917664;29;20103;-64
2021/06/27 08:48:21;;;;;;;4.00;3.10;;;;;;;;;;4916109;29;20028;-67
2021/06/27 08:50:48;;;;;;;6.72;3.38;;;;;;;;;;4916997;29;20058;-63
2021/06/27 08:53:15;;;;;;;5.82;2.63;;;;;;;;;;4917138;29;20058;-67
2021/06/27 08:55:41;;;;;;;4.35;2.60;;;;;;;;;;4916812;29;20036;-67
2021/06/27 08:58:09;;;;;;;7.60;3.80;;;;;;;;;;4917090;29;20024;-66
2021/06/27 09:00:35;;;;;;;5.20;2.80;;;;;;;;;;4917282;29;20051;-65
2021/06/27 09:03:01;;;;;;;4.85;2.58;;;;;;;;;;4917396;29;20370;-62
2021/06/27 09:05:30;;;;;;;5.72;2.60;;;;;;;;;;4916871;29;20072;-58
2021/06/27 09:08:12;;;;;;;7.10;3.15;;;;;;;;;;4917277;29;20024;-57
2021/06/27 09:10:38;;;;;;;4.47;2.60;;;;;;;;;;4917523;29;20033;-55
2021/06/27 09:13:04;;;;;;;2.88;2.13;;;;;;;;;;4917126;29;20028;-55
2021/06/27 09:15:35;;;;;;;4.40;2.40;;;;;;;;;;4917368;29;20528;-56
2021/06/27 09:18:04;;;;;;;3.95;2.65;;;;;;;;;;4917423;29;20099;-57
2021/06/27 09:20:30;;;;;;;7.15;3.38;;;;;;;;;;4916709;29;20039;-58
2021/06/27 09:22:57;;;;;;;5.97;2.85;;;;;;;;;;4914312;29;20388;-55
2021/06/27 09:25:25;;;;;;;6.28;4.43;;;;;;;;;;4914047;29;20241;-57
2021/06/27 09:28:11;;;;;;;4.43;2.70;;;;;;;;;;4914521;29;20395;-60
2021/06/27 09:30:37;;;;;;;3.28;2.30;;;;;;;;;;4912207;29;20123;-59
2021/06/27 09:33:11;;;;;;;8.90;3.75;;;;;;;;;;4915269;29;20068;-57
2021/06/27 09:35:37;;;;;;;7.30;3.55;;;;;;;;;;4916962;29;20039;-61
2021/06/27 09:38:22;;;;;;;2.53;1.90;;;;;;;;;;4916871;29;20032;-57
2021/06/27 09:40:52;;;;;;;10.20;5.60;;;;;;;;;;4916832;29;20380;-58
2021/06/27 09:43:19;;;;;;;4.63;2.40;;;;;;;;;;4917118;29;20062;-60
2021/06/27 09:45:49;;;;;;;3.75;2.88;;;;;;;;;;4916588;29;20032;-55
2021/06/27 09:48:15;;;;;;;3.28;2.40;;;;;;;;;;4916839;29;20492;-57
2021/06/27 09:50:42;;;;;;;7.78;3.63;;;;;;;;;;4899443;29;20125;-58
2021/06/27 09:53:27;;;;;;;5.30;2.60;;;;;;;;;;4916545;29;20028;-56
2021/06/27 09:55:55;;;;;;;4.40;2.55;;;;;;;;;;4916590;29;20143;-57
2021/06/27 09:58:21;;;;;;;5.60;3.70;;;;;;;;;;4916312;29;20488;-56
2021/06/27 10:00:47;;;;;;;11.90;6.28;;;;;;;;;;4916143;29;20504;-55
2021/06/27 10:03:13;;;;;;;6.70;3.15;;;;;;;;;;4916300;29;20538;-56
2021/06/27 10:05:40;;;;;;;6.10;3.92;;;;;;;;;;4916290;29;20087;-63
2021/06/27 10:08:06;;;;;;;11.27;5.57;;;;;;;;;;4915760;29;20033;-55
2021/06/27 10:10:32;;;;;;;4.78;3.10;;;;;;;;;;4916164;29;20092;-55
2021/06/27 10:12:58;;;;;;;5.07;2.90;;;;;;;;;;4916047;29;20020;-55
2021/06/27 10:15:24;;;;;;;5.47;4.03;;;;;;;;;;4916409;29;20064;-54
2021/06/27 10:17:51;;;;;;;4.75;3.25;;;;;;;;;;4916528;29;20115;-58
2021/06/27 10:20:18;;;;;;;5.80;3.33;;;;;;;;;;4915620;29;20108;-60
2021/06/27 10:22:45;;;;;;;4.43;3.10;;;;;;;;;;4915394;29;20099;-59
2021/06/27 10:25:15;;;;;;;3.78;2.92;;;;;;;;;;4915641;29;20040;-58
2021/06/27 10:27:41;;;;;;;3.85;2.92;;;;;;;;;;4914437;29;20028;-54
2021/06/27 10:30:09;;;;;;;5.43;3.20;;;;;;;;;;4914695;29;20030;-54
2021/06/27 10:32:39;;;;;;;5.32;3.30;;;;;;;;;;4914115;29;20060;-54
2021/06/27 10:35:09;;;;;;;4.95;3.22;;;;;;;;;;4895191;29;20134;-55
2021/06/27 10:37:36;;;;;;;3.47;2.80;;;;;;;;;;4914428;29;20039;-54
2021/06/27 10:40:02;;;;;;;3.75;2.50;;;;;;;;;;4915199;29;20027;-58
2021/06/27 10:42:46;;;;;;;4.35;2.40;;;;;;;;;;4915346;29;20447;-60
2021/06/27 10:45:12;;;;;;;4.45;2.42;;;;;;;;;;4914027;29;20115;-55
2021/06/27 10:47:38;;;;;;;5.97;2.60;;;;;;;;;;4915212;29;20032;-55
2021/06/27 10:50:08;;;;;;;3.70;2.47;;;;;;;;;;4915372;29;20119;-57
2021/06/27 10:52:53;;;;;;;6.28;3.35;;;;;;;;;;4915470;29;20099;-57
2021/06/27 10:55:28;;;;;;;2.20;1.70;;;;;;;;;;4914606;29;20075;-59
2021/06/27 10:57:59;;;;;;;3.75;2.00;;;;;;;;;;4912946;29;20028;-57
2021/06/27 11:00:26;;;;;;;3.50;2.13;;;;;;;;;;4908732;29;20071;-57
2021/06/27 11:02:52;;;;;;;2.88;1.80;;;;;;;;;;4911499;29;20060;-56
2021/06/27 11:05:32;;;;;;;2.38;1.92;;;;;;;;;;4910948;29;20115;-62
2021/06/27 11:07:59;;;;;;;9.93;2.60;;;;;;;;;;4909399;29;20032;-57
2021/06/27 11:10:25;;;;;;;5.72;2.30;;;;;;;;;;4909576;29;20099;-56
2021/06/27 11:13:04;;;;;;;3.58;1.90;;;;;;;;;;4908889;29;20024;-60
2021/06/27 11:15:32;;;;;;;3.92;2.10;;;;;;;;;;4912078;29;20020;-58
2021/06/27 11:17:59;;;;;;;1.83;1.60;;;;;;;;;;4913839;29;20116;-56
2021/06/27 11:20:30;;;;;;;4.28;2.40;;;;;;;;;;4913673;29;20032;-60
2021/06/27 11:22:57;;;;;;;2.70;2.00;;;;;;;;;;4914012;29;20030;-60
2021/06/27 11:25:33;;;;;;;3.47;1.98;;;;;;;;;;4911510;29;20020;-58
2021/06/27 11:27:59;;;;;;;3.63;2.08;;;;;;;;;;4914185;29;20024;-56
2021/06/27 11:30:27;;;;;;;4.55;2.30;;;;;;;;;;4897448;29;20028;-65
2021/06/27 11:32:53;;;;;;;5.20;2.00;;;;;;;;;;4914255;29;20400;-61
2021/06/27 11:35:33;;;;;;;4.88;2.03;;;;;;;;;;4914510;29;20532;-58
2021/06/27 11:37:59;;;;;;;5.35;2.25;;;;;;;;;;4914737;29;20032;-57
2021/06/27 11:40:45;;;;;;;3.38;2.22;;;;;;;;;;4914537;29;20039;-54
2021/06/27 11:43:11;;;;;;;2.95;2.30;;;;;;;;;;4913101;29;20024;-57
2021/06/27 11:45:38;;;;;;;5.05;2.03;;;;;;;;;;4914791;29;20074;-57
2021/06/27 11:48:08;;;;;;;3.10;2.13;;;;;;;;;;4912432;29;20040;-64
2021/06/27 11:50:35;;;;;;;4.90;1.98;;;;;;;;;;4914262;29;20032;-61
2021/06/27 11:53:09;;;;;;;3.50;2.03;;;;;;;;;;4914259;29;20024;-59
2021/06/27 11:55:37;;;;;;;3.83;2.20;;;;;;;;;;4914208;29;20028;-56
2021/06/27 11:58:03;;;;;;;3.63;1.90;;;;;;;;;;4913912;29;20024;-56
2021/06/27 12:00:40;;;;;;;4.20;1.83;;;;;;;;;;4912065;29;20056;-63
2021/06/27 12:03:07;;;;;;;5.10;1.65;;;;;;;;;;4909890;29;20083;-56
2021/06/27 12:05:33;;;;;;;2.42;1.60;;;;;;;;;;4914678;29;20024;-58
2021/06/27 12:08:06;;;;;;;4.68;1.90;;;;;;;;;;4914156;29;20076;-62
2021/06/27 12:10:33;;;;;;;7.90;2.30;;;;;;;;;;4914269;29;20039;-63
2021/06/27 12:13:03;;;;;;;5.07;1.90;;;;;;;;;;4914433;29;20032;-55
2021/06/27 12:15:34;;;;;;;5.03;2.20;;;;;;;;;;4914121;29;20375;-58
2021/06/27 12:18:00;;;;;;;4.30;2.13;;;;;;;;;;4914202;29;20092;-55
2021/06/27 12:20:28;;;;;;;5.60;2.40;;;;;;;;;;4913413;29;20444;-62
2021/06/27 12:23:00;;;;;;;13.88;3.15;;;;;;;;;;4913307;29;20036;-54
2021/06/27 12:25:30;;;;;;;6.03;2.40;;;;;;;;;;4916439;29;20020;-67
2021/06/27 12:27:57;;;;;;;3.40;1.80;;;;;;;;;;4914543;29;20060;-58
2021/06/27 12:30:42;;;;;;;6.32;2.40;;;;;;;;;;4916870;29;20526;-57
2021/06/27 12:33:09;;;;;;;3.85;1.70;;;;;;;;;;4910336;29;20094;-57
2021/06/27 12:35:39;;;;;;;4.65;1.90;;;;;;;;;;4914453;29;20388;-62
2021/06/27 12:38:05;;;;;;;12.07;2.72;;;;;;;;;;4915954;29;20488;-57
2021/06/27 12:40:31;;;;;;;2.83;1.83;;;;;;;;;;4917069;29;20047;-62
2021/06/27 12:42:57;;;;;;;1.98;1.58;;;;;;;;;;4909420;29;20039;-55
2021/06/27 12:45:24;;;;;;;2.65;1.45;;;;;;;;;;4917570;29;20440;-61
2021/06/27 12:47:51;;;;;;;2.20;1.40;;;;;;;;;;4916428;29;20028;-55
2021/06/27 12:50:17;;;;;;;2.22;1.40;;;;;;;;;;4916682;29;20369;-56
2021/06/27 12:52:45;;;;;;;2.25;1.48;;;;;;;;;;4916174;29;20091;-56
2021/06/27 12:55:13;;;;;;;9.63;3.83;;;;;;;;;;4916541;29;20115;-56
2021/06/27 12:57:39;;;;;;;6.70;2.75;;;;;;;;;;4916171;29;20557;-58
2021/06/27 13:00:07;;;;;;;5.97;2.17;;;;;;;;;;4915924;29;20480;-54
2021/06/27 13:02:34;;;;;;;3.35;1.52;;;;;;;;;;4916647;29;20079;-61
2021/06/27 13:05:00;;;;;;;3.80;2.20;;;;;;;;;;4916659;29;20035;-55
2021/06/27 13:07:46;;;;;;;4.05;1.60;;;;;;;;;;4916934;29;20465;-58
2021/06/27 13:10:14;;;;;;;2.85;1.90;;;;;;;;;;4916476;29;20068;-59
2021/06/27 13:12:46;;;;;;;2.75;1.70;;;;;;;;;;4916811;29;20035;-61
2021/06/27 13:15:13;;;;;;;4.05;1.60;;;;;;;;;;4916720;29;20020;-60
2021/06/27 13:17:42;;;;;;;3.88;1.98;;;;;;;;;;4916022;29;20024;-54
2021/06/27 13:20:12;;;;;;;6.05;2.30;;;;;;;;;;4915033;29;20432;-62
2021/06/27 13:22:57;;;;;;;6.88;1.90;;;;;;;;;;4912625;29;20506;-54
2021/06/27 13:25:49;;;;;;;3.42;1.80;;;;;;;;;;4914754;29;20036;-59
2021/06/27 13:28:15;;;;;;;;;;;;;;;;;;4911063;29;20044;-58
2021/06/27 13:30:45;;;;;;;3.83;1.70;;;;;;;;;;4916346;29;19911;-54
2021/06/27 13:33:11;;;;;;;3.85;1.50;;;;;;;;;;4916353;29;20488;-54
2021/06/27 13:35:39;;;;;;;2.17;1.58;;;;;;;;;;4914653;29;20051;-54
2021/06/27 13:38:06;;;;;;;3.53;1.63;;;;;;;;;;4898845;29;20400;-56
2021/06/27 13:40:34;;;;;;;4.95;1.70;;;;;;;;;;4916635;29;20532;-57
2021/06/27 13:43:00;;;;;;;4.43;1.80;;;;;;;;;;4916323;29;20472;-56
2021/06/27 13:45:27;;;;;;;2.58;1.30;;;;;;;;;;4916396;29;20028;-61
2021/06/27 13:47:53;;;;;;;1.95;1.30;;;;;;;;;;4916530;29;20043;-55
2021/06/27 13:50:20;;;;;;;2.30;1.20;;;;;;;;;;4916644;29;20088;-60
2021/06/27 13:52:47;;;;;;;3.08;1.20;;;;;;;;;;4916275;29;20043;-54
2021/06/27 13:55:15;;;;;;;2.53;1.65;;;;;;;;;;4916808;29;20024;-55
2021/06/27 13:57:42;;;;;;;2.50;1.25;;;;;;;;;;4916530;29;20032;-55
2021/06/27 14:00:09;;;;;;;3.10;1.48;;;;;;;;;;4898182;29;20461;-55
2021/06/27 14:02:35;;;;;;;2.17;1.50;;;;;;;;;;4916442;29;20028;-55
2021/06/27 14:05:01;;;;;;;2.03;1.58;;;;;;;;;;4916295;29;20052;-55
2021/06/27 14:07:28;;;;;;;3.15;1.65;;;;;;;;;;4916186;29;20024;-55
2021/06/27 14:09:54;;;;;;;1.80;1.42;;;;;;;;;;4916150;29;20028;-55
2021/06/27 14:12:20;;;;;;;3.30;1.40;;;;;;;;;;4916140;29;20039;-54
2021/06/27 14:14:46;;;;;;;3.95;1.60;;;;;;;;;;4916337;29;20032;-55
2021/06/27 14:17:12;;;;;;;2.88;1.60;;;;;;;;;;4916390;29;20046;-65
2021/06/27 14:19:38;;;;;;;2.95;1.50;;;;;;;;;;4915962;29;20221;-54
2021/06/27 14:22:04;;;;;;;2.22;1.42;;;;;;;;;;4915024;29;20099;-54
2021/06/27 14:24:32;;;;;;;3.00;1.88;;;;;;;;;;4913095;29;20088;-54
2021/06/27 14:26:58;;;;;;;2.30;1.73;;;;;;;;;;4914874;29;20036;-56
2021/06/27 14:29:25;;;;;;;3.60;1.50;;;;;;;;;;4915554;29;20043;-56
2021/06/27 14:31:51;;;;;;;2.20;1.70;;;;;;;;;;4915676;29;20048;-55
2021/06/27 14:34:17;;;;;;;2.15;1.50;;;;;;;;;;4915673;29;20040;-55
2021/06/27 14:36:43;;;;;;;2.80;1.70;;;;;;;;;;4915627;29;20027;-55
2021/06/27 14:39:09;;;;;;;3.90;1.50;;;;;;;;;;4915363;29;20491;-55
2021/06/27 14:41:35;;;;;;;6.72;1.75;;;;;;;;;;4915524;29;20668;-53
2021/06/27 14:44:02;;;;;;;2.30;1.70;;;;;;;;;;4915153;29;20119;-55